Airfield :







YOU CAN JOIN US ON...

 
LOGIN :

Register | Disclaimer

   EN    FR    IT 

 









Legend :    VFR   Marginal VFR   IFR   Intensive IFR   Very Intensive IFR
Visi :
Ceiling :
>= 8 km
>= 3000ft
5 to 8 km
1000 to 3000 ft
1500m to 5 km
500 to 1000 ft
800 to 1500m
200 to 500 ft
< 800m
< 200 ft
Symbols :   Thunderstorms  Fog  Heavy snow  Heavy precipitations  Wind > 20 kt






- Airport Elevation : 342 ft


KCON - Concord Municipal

CURRENT METAR :
  • 291651Z AUTO 22010G18KT 10SM SCT038 SCT047 BKN055 29/20 A2992 RMK AO2 SLP129 T02940200 $

EXPIRED METARs :
  • 291551Z AUTO 20010G17KT 10SM BKN037 OVC048 28/19 A2993 RMK AO2 SLP132 T02830194
  • 291451Z AUTO 21007KT 170V240 10SM OVC032 28/20 A2995 RMK AO2 SLP140 T02830200 56012
  • 291446Z AUTO 20010KT 10SM BKN032 27/19 A2995 RMK AO2

TAF KCON
Valid from the 29 at 12:00 until the 30 at 12:00 UTC


291120Z 2912/3012 16009KT P6SM OVC020
FM291500 20008KT P6SM BKN035
FM292000 19009KT P6SM BKN035
FM300200 18008KT P6SM OVC015
KZBW FIR / North America



MET'MAP, your aeronautical weather chart ! - Copyright ORBIFLY December 2007 - Disclaimer

ORBIFLY MET'MAP TEAM :

Programming & Development : Alexandra Zaïnal
Concept & original design : Baudouin d'Aumeries
Assistance for programming : Marc-Olivier Méhu
Technical & hardware support : Manuel Goepfert

Contact : metmap@orbifly.com




SOURCES & CREDITS :

   NOAA